Time;durP1;ratioP1;P1;durP2;ratioP2;P2;SDS_P1;SDS_P2;PMS_P1;PMS_P2;Temp;Humidity;BMP_temperature;BMP_pressure;BME280_temperature;BME280_humidity;BME280_pressure;Samples;Min_cycle;Max_cycle;Signal;HPM_P1;HPM_P2
2023/07/15 00:02:09;;;;;;;1.17;1.05;;;22.50;67.80;;;;;;5072774;28;20406;-58
2023/07/15 00:04:35;;;;;;;1.40;1.02;;;22.50;67.70;;;;;;5069439;28;20033;-58
2023/07/15 00:07:05;;;;;;;1.30;0.90;;;22.40;68.20;;;;;;5072365;28;20111;-58
2023/07/15 00:09:30;;;;;;;1.35;1.00;;;22.40;67.50;;;;;;5072339;28;20093;-58
2023/07/15 00:11:57;;;;;;;0.80;0.80;;;22.40;67.50;;;;;;5081313;28;20537;-58
2023/07/15 00:14:25;;;;;;;0.80;0.80;;;22.40;67.50;;;;;;5074180;28;20364;-61
2023/07/15 00:16:51;;;;;;;1.27;1.17;;;22.30;67.30;;;;;;5076102;28;20177;-58
2023/07/15 00:19:19;;;;;;;1.13;1.02;;;22.30;67.20;;;;;;5071730;28;20156;-61
2023/07/15 00:21:45;;;;;;;0.60;0.60;;;22.30;67.10;;;;;;5067802;28;20025;-58
2023/07/15 00:24:11;;;;;;;2.25;0.77;;;22.30;67.20;;;;;;5072763;28;20068;-58
2023/07/15 00:26:37;;;;;;;0.80;0.70;;;22.30;67.20;;;;;;5081383;28;20102;-58
2023/07/15 00:29:04;;;;;;;3.50;0.90;;;22.30;67.20;;;;;;5065220;28;20587;-59
2023/07/15 00:31:31;;;;;;;1.88;1.02;;;22.30;67.20;;;;;;5076548;28;20364;-58
2023/07/15 00:33:57;;;;;;;0.80;0.80;;;22.20;67.10;;;;;;5075042;28;20027;-62
2023/07/15 00:36:22;;;;;;;0.88;0.75;;;22.20;67.30;;;;;;5074099;28;20568;-62
2023/07/15 00:38:48;;;;;;;0.93;0.85;;;22.20;67.20;;;;;;5076980;28;20036;-62
2023/07/15 00:41:33;;;;;;;1.27;1.17;;;22.20;67.10;;;;;;5079288;28;20036;-62
2023/07/15 00:43:59;;;;;;;1.08;0.98;;;22.30;66.90;;;;;;5074364;28;20116;-62
2023/07/15 00:46:44;;;;;;;1.00;0.90;;;22.20;67.00;;;;;;5074101;28;20028;-62
2023/07/15 00:49:20;;;;;;;1.63;1.17;;;22.20;67.20;;;;;;5081420;28;20012;-59
2023/07/15 00:52:11;;;;;;;0.90;0.75;;;22.20;67.00;;;;;;5076636;28;20457;-58
2023/07/15 00:54:40;;;;;;;0.65;0.60;;;22.10;66.90;;;;;;5070573;28;20031;-58
2023/07/15 00:57:08;;;;;;;1.98;0.95;;;22.10;66.80;;;;;;5080557;28;20501;-58
2023/07/15 00:59:34;;;;;;;0.85;0.77;;;22.10;66.60;;;;;;5074195;28;20036;-58
2023/07/15 01:02:01;;;;;;;1.38;1.08;;;22.10;66.30;;;;;;5080602;28;20121;-58
2023/07/15 01:04:27;;;;;;;0.80;0.80;;;22.10;66.10;;;;;;5069472;28;20047;-58
2023/07/15 01:06:54;;;;;;;1.38;1.25;;;22.20;66.00;;;;;;5067756;28;20033;-58
2023/07/15 01:09:20;;;;;;;0.75;0.60;;;22.30;65.80;;;;;;5076734;28;20102;-58
2023/07/15 01:11:46;;;;;;;0.70;0.70;;;22.30;65.20;;;;;;5078383;28;20016;-58
2023/07/15 01:14:12;;;;;;;1.73;1.00;;;22.40;64.80;;;;;;5069287;28;20499;-58
2023/07/15 01:16:39;;;;;;;1.98;0.77;;;22.40;63.90;;;;;;5072481;28;20037;-58
2023/07/15 01:19:05;;;;;;;0.60;0.55;;;22.50;63.80;;;;;;5081342;28;20115;-58
2023/07/15 01:21:35;;;;;;;0.70;0.70;;;22.60;63.60;;;;;;5072440;28;20439;-58
2023/07/15 01:24:02;;;;;;;1.40;0.90;;;22.60;63.50;;;;;;5071654;28;20051;-62
2023/07/15 01:26:29;;;;;;;2.10;0.98;;;22.70;63.30;;;;;;5069742;28;20058;-62
2023/07/15 01:28:55;;;;;;;0.77;0.60;;;22.70;62.80;;;;;;5075158;28;20081;-62
2023/07/15 01:31:20;;;;;;;1.30;0.85;;;22.80;62.50;;;;;;5077678;28;20449;-62
2023/07/15 01:33:49;;;;;;;1.08;0.90;;;22.90;62.50;;;;;;5076629;28;20079;-62
2023/07/15 01:36:15;;;;;;;0.63;0.60;;;22.90;62.10;;;;;;5077239;28;20111;-62
2023/07/15 01:38:40;;;;;;;2.22;0.70;;;23.00;61.60;;;;;;5085597;28;20124;-62
2023/07/15 01:41:06;;;;;;;1.38;0.73;;;23.00;61.30;;;;;;5070871;28;20074;-62
2023/07/15 01:43:32;;;;;;;0.70;0.70;;;23.10;61.30;;;;;;5081542;28;20034;-62
2023/07/15 01:45:58;;;;;;;0.60;0.60;;;23.10;61.40;;;;;;5074654;28;20463;-62
2023/07/15 01:48:25;;;;;;;0.63;0.50;;;23.10;61.70;;;;;;5083198;28;20093;-62
2023/07/15 01:50:51;;;;;;;1.55;0.57;;;23.10;61.70;;;;;;5080191;28;20401;-62
2023/07/15 01:53:17;;;;;;;1.05;0.57;;;23.10;61.50;;;;;;5071806;28;20072;-58
2023/07/15 01:55:43;;;;;;;3.40;1.05;;;23.20;61.00;;;;;;5071607;28;20083;-59
2023/07/15 01:58:09;;;;;;;0.77;0.70;;;23.20;60.80;;;;;;5077660;28;20032;-58
2023/07/15 02:00:35;;;;;;;1.10;0.68;;;23.20;60.80;;;;;;5071471;28;20062;-58
2023/07/15 02:03:00;;;;;;;0.80;0.75;;;23.20;60.80;;;;;;5074612;28;20505;-58
2023/07/15 02:05:26;;;;;;;1.83;0.80;;;23.10;61.10;;;;;;5063543;28;20036;-62
2023/07/15 02:07:52;;;;;;;0.60;0.60;;;23.00;61.30;;;;;;5077658;28;20125;-62
2023/07/15 02:10:18;;;;;;;0.75;0.50;;;22.90;61.60;;;;;;5080667;28;20032;-62
2023/07/15 02:12:43;;;;;;;0.90;0.70;;;22.90;61.60;;;;;;5078696;28;20135;-62
2023/07/15 02:15:09;;;;;;;0.90;0.60;;;22.80;61.80;;;;;;5078762;28;20036;-62
2023/07/15 02:17:35;;;;;;;1.77;0.60;;;22.70;61.90;;;;;;5064798;28;20044;-62
2023/07/15 02:20:01;;;;;;;0.60;0.60;;;22.60;62.00;;;;;;5085760;28;20024;-62
2023/07/15 02:22:27;;;;;;;0.75;0.70;;;22.60;62.30;;;;;;5069560;28;20085;-62
2023/07/15 02:24:53;;;;;;;0.68;0.68;;;22.50;62.40;;;;;;5074866;28;20028;-62
2023/07/15 02:27:19;;;;;;;1.23;1.13;;;22.40;62.50;;;;;;5075675;28;20036;-62
2023/07/15 02:29:44;;;;;;;0.75;0.75;;;22.40;62.30;;;;;;5079309;28;20032;-62
2023/07/15 02:32:34;;;;;;;1.05;0.73;;;22.40;62.40;;;;;;5066263;28;20044;-58
2023/07/15 02:35:00;;;;;;;2.17;0.55;;;22.40;61.90;;;;;;5074638;28;20024;-62
2023/07/15 02:37:26;;;;;;;3.13;0.70;;;22.40;61.70;;;;;;5079852;28;20035;-62
2023/07/15 02:39:52;;;;;;;1.20;0.60;;;22.30;61.60;;;;;;5079190;28;20040;-62
2023/07/15 02:42:17;;;;;;;0.80;0.73;;;22.40;60.90;;;;;;5073435;28;20123;-62
2023/07/15 02:44:43;;;;;;;0.60;0.60;;;22.40;60.80;;;;;;5083513;28;20383;-62
2023/07/15 02:47:08;;;;;;;1.08;0.50;;;22.40;60.70;;;;;;5078485;28;20082;-62
2023/07/15 02:49:34;;;;;;;0.50;0.50;;;22.50;60.90;;;;;;5071269;28;20017;-62
2023/07/15 02:52:00;;;;;;;0.75;0.75;;;22.50;61.00;;;;;;5082942;28;20047;-62
2023/07/15 02:54:26;;;;;;;0.60;0.60;;;22.50;60.90;;;;;;5072956;28;20479;-62
2023/07/15 02:56:53;;;;;;;1.50;0.50;;;22.50;61.00;;;;;;5072492;28;20097;-63
2023/07/15 02:59:19;;;;;;;2.38;0.73;;;22.50;61.20;;;;;;5079913;28;20044;-63
2023/07/15 03:01:45;;;;;;;0.73;0.73;;;22.40;61.20;;;;;;5073713;28;20533;-63
2023/07/15 03:04:10;;;;;;;0.70;0.70;;;22.40;61.20;;;;;;5069707;28;20048;-63
2023/07/15 03:06:36;;;;;;;1.40;0.80;;;22.40;61.20;;;;;;5079208;28;20486;-62
2023/07/15 03:09:02;;;;;;;0.70;0.70;;;22.40;61.00;;;;;;5081779;28;20123;-62
2023/07/15 03:11:28;;;;;;;1.20;0.60;;;22.40;61.00;;;;;;5083659;28;20036;-62
2023/07/15 03:13:54;;;;;;;0.82;0.50;;;22.40;60.80;;;;;;5084654;28;20517;-62
2023/07/15 03:16:22;;;;;;;1.05;0.60;;;22.40;60.70;;;;;;5084812;28;20020;-58
2023/07/15 03:18:48;;;;;;;0.60;0.60;;;22.40;60.70;;;;;;5081253;28;20115;-57
2023/07/15 03:21:13;;;;;;;1.20;0.52;;;22.40;60.60;;;;;;5079501;28;20032;-58
2023/07/15 03:23:39;;;;;;;2.42;0.70;;;22.30;60.80;;;;;;5072193;28;20436;-58
2023/07/15 03:26:05;;;;;;;1.10;0.70;;;22.30;61.20;;;;;;5072355;28;20045;-57
2023/07/15 03:28:30;;;;;;;0.57;0.52;;;22.20;61.30;;;;;;5084517;28;20028;-58
2023/07/15 03:30:56;;;;;;;0.90;0.60;;;22.10;61.40;;;;;;5086694;28;20036;-61
2023/07/15 03:33:22;;;;;;;0.60;0.50;;;22.10;61.70;;;;;;5083680;28;20025;-58
2023/07/15 03:35:47;;;;;;;4.07;0.75;;;22.00;61.80;;;;;;5080041;28;20043;-58
2023/07/15 03:38:13;;;;;;;0.85;0.55;;;22.00;62.10;;;;;;5079676;28;20028;-58
2023/07/15 03:40:39;;;;;;;1.17;1.08;;;21.90;62.30;;;;;;5085113;28;20036;-58
2023/07/15 03:43:04;;;;;;;0.80;0.63;;;21.90;62.50;;;;;;5082992;28;20039;-60
2023/07/15 03:45:30;;;;;;;1.00;0.55;;;21.80;62.60;;;;;;5075302;28;20043;-63
2023/07/15 03:47:56;;;;;;;0.40;0.40;;;21.80;62.80;;;;;;5078653;28;20036;-62
2023/07/15 03:50:21;;;;;;;0.95;0.50;;;21.70;62.90;;;;;;5081603;28;20047;-60
2023/07/15 03:52:47;;;;;;;0.65;0.50;;;21.70;63.20;;;;;;5077117;28;20047;-60
2023/07/15 03:55:13;;;;;;;0.70;0.70;;;21.70;63.50;;;;;;5080961;28;20040;-59
2023/07/15 03:57:38;;;;;;;0.75;0.75;;;21.60;63.60;;;;;;5075988;28;20036;-59
2023/07/15 04:00:16;;;;;;;1.73;0.57;;;21.60;63.80;;;;;;5078108;28;20567;-59
2023/07/15 04:02:44;;;;;;;0.60;0.60;;;21.60;63.90;;;;;;5077315;28;20502;-60
2023/07/15 04:05:11;;;;;;;0.70;0.55;;;21.50;64.10;;;;;;5080153;28;20483;-60
2023/07/15 04:07:37;;;;;;;0.50;0.50;;;21.50;64.30;;;;;;5058109;28;20037;-59
2023/07/15 04:10:03;;;;;;;0.70;0.60;;;21.50;64.50;;;;;;5065642;28;20021;-59
2023/07/15 04:12:29;;;;;;;1.02;0.80;;;21.40;64.60;;;;;;5064768;28;20024;-60
2023/07/15 04:14:58;;;;;;;1.67;0.95;;;21.40;64.70;;;;;;5073291;28;20051;-60
2023/07/15 04:17:23;;;;;;;0.50;0.50;;;21.40;65.00;;;;;;5076214;28;20036;-60
2023/07/15 04:19:49;;;;;;;1.17;0.57;;;21.40;65.10;;;;;;5078607;28;20459;-63
2023/07/15 04:22:15;;;;;;;0.47;0.43;;;21.40;65.20;;;;;;5076405;28;20074;-57
2023/07/15 04:24:40;;;;;;;1.02;0.55;;;21.40;65.30;;;;;;5071868;28;20536;-58
2023/07/15 04:27:06;;;;;;;2.33;0.60;;;21.40;66.00;;;;;;5072760;28;20020;-58
2023/07/15 04:29:32;;;;;;;1.05;0.50;;;21.40;65.60;;;;;;5079652;28;20471;-57
2023/07/15 04:31:58;;;;;;;0.50;0.50;;;21.50;65.90;;;;;;5076022;28;20031;-57
2023/07/15 04:34:23;;;;;;;1.92;0.68;;;21.50;66.10;;;;;;5074299;28;20037;-58
2023/07/15 04:36:49;;;;;;;0.68;0.57;;;21.50;66.30;;;;;;5079735;28;20568;-61
2023/07/15 04:39:15;;;;;;;0.77;0.60;;;21.50;66.40;;;;;;5076443;28;20448;-61
2023/07/15 04:41:40;;;;;;;0.90;0.55;;;21.50;66.50;;;;;;5071770;28;20520;-61
2023/07/15 04:44:06;;;;;;;1.55;0.80;;;21.60;66.60;;;;;;5074948;28;20510;-61
2023/07/15 04:46:32;;;;;;;0.75;0.50;;;21.60;66.60;;;;;;5071983;28;20052;-61
2023/07/15 04:48:58;;;;;;;0.55;0.50;;;21.60;66.60;;;;;;5073485;28;20054;-61
2023/07/15 04:51:24;;;;;;;1.20;0.70;;;21.60;66.50;;;;;;5076386;28;20032;-62
2023/07/15 04:53:49;;;;;;;0.88;0.60;;;21.60;66.50;;;;;;5075239;28;20035;-61
2023/07/15 04:56:15;;;;;;;0.70;0.70;;;21.70;66.60;;;;;;5084425;28;20024;-63
2023/07/15 04:58:41;;;;;;;1.83;0.63;;;21.80;66.50;;;;;;5072101;28;20025;-63
2023/07/15 05:01:06;;;;;;;0.55;0.55;;;21.80;66.40;;;;;;5072270;28;20016;-63
2023/07/15 05:03:33;;;;;;;1.30;0.77;;;21.90;66.70;;;;;;5067620;28;20028;-63
2023/07/15 05:05:59;;;;;;;1.10;0.60;;;21.90;66.30;;;;;;5079088;28;20482;-59
2023/07/15 05:08:27;;;;;;;1.40;0.60;;;22.00;66.30;;;;;;5077987;28;20124;-60
2023/07/15 05:10:53;;;;;;;1.88;0.73;;;22.00;66.20;;;;;;5077584;28;20020;-59
2023/07/15 05:13:19;;;;;;;0.75;0.63;;;22.10;66.20;;;;;;5082237;28;20036;-60
2023/07/15 05:15:45;;;;;;;0.98;0.68;;;22.10;66.10;;;;;;5084662;28;20496;-60
2023/07/15 05:18:11;;;;;;;0.60;0.60;;;22.20;66.10;;;;;;5083253;28;20023;-59
2023/07/15 05:20:37;;;;;;;1.52;0.77;;;22.30;66.10;;;;;;5084042;28;20038;-59
2023/07/15 05:23:04;;;;;;;0.82;0.70;;;22.30;66.00;;;;;;5074842;28;20039;-59
2023/07/15 05:25:31;;;;;;;5.90;0.95;;;22.40;65.60;;;;;;5082235;28;20085;-59
2023/07/15 05:27:58;;;;;;;0.55;0.50;;;22.50;65.50;;;;;;5079862;28;20493;-59
2023/07/15 05:30:24;;;;;;;0.82;0.82;;;22.50;65.40;;;;;;5094810;28;20046;-60
2023/07/15 05:32:50;;;;;;;0.85;0.52;;;22.60;65.30;;;;;;5076740;28;20036;-59
2023/07/15 05:35:16;;;;;;;1.05;0.60;;;22.70;65.20;;;;;;5079497;28;20517;-59
2023/07/15 05:37:42;;;;;;;0.80;0.60;;;22.70;65.10;;;;;;5072084;28;20105;-59
2023/07/15 05:40:12;;;;;;;0.75;0.60;;;22.80;65.10;;;;;;5074768;28;20024;-64
2023/07/15 05:42:41;;;;;;;0.98;0.80;;;22.90;65.00;;;;;;5070196;28;20633;-64
2023/07/15 05:45:08;;;;;;;1.20;0.63;;;22.90;64.80;;;;;;5076395;28;20374;-64
2023/07/15 05:47:34;;;;;;;3.35;0.60;;;23.00;64.70;;;;;;5073928;28;20028;-64
2023/07/15 05:50:00;;;;;;;1.58;1.23;;;23.00;64.60;;;;;;5080743;28;20020;-64
2023/07/15 05:52:26;;;;;;;0.98;0.60;;;23.10;64.50;;;;;;5072129;28;20027;-64
2023/07/15 05:54:51;;;;;;;1.42;0.65;;;23.10;64.30;;;;;;5078033;28;20033;-64
2023/07/15 05:57:17;;;;;;;0.85;0.68;;;23.20;64.10;;;;;;5068812;28;20044;-64
2023/07/15 05:59:43;;;;;;;1.05;0.90;;;23.20;63.80;;;;;;5083556;28;20082;-60
2023/07/15 06:02:08;;;;;;;0.70;0.70;;;23.30;63.30;;;;;;5082798;28;20036;-60
2023/07/15 06:04:34;;;;;;;0.80;0.80;;;23.30;63.30;;;;;;5072746;28;20046;-59
2023/07/15 06:07:00;;;;;;;1.48;0.70;;;23.40;63.00;;;;;;5074734;28;20112;-59
2023/07/15 06:09:25;;;;;;;2.40;0.68;;;23.40;62.90;;;;;;5075297;28;20039;-59
2023/07/15 06:11:51;;;;;;;0.82;0.70;;;23.60;62.50;;;;;;5075346;28;20539;-60
2023/07/15 06:14:17;;;;;;;1.85;0.90;;;23.60;62.20;;;;;;5070016;28;20044;-60
2023/07/15 06:16:42;;;;;;;1.13;0.63;;;23.60;62.20;;;;;;5070736;28;20037;-60
2023/07/15 06:19:08;;;;;;;0.70;0.70;;;23.70;62.10;;;;;;5070656;28;20085;-60
2023/07/15 06:21:36;;;;;;;0.77;0.65;;;23.70;62.00;;;;;;5062466;28;20435;-64
2023/07/15 06:24:02;;;;;;;0.52;0.50;;;23.80;61.80;;;;;;5068827;28;20028;-64
2023/07/15 06:26:27;;;;;;;2.10;1.15;;;23.80;61.80;;;;;;5077044;28;20020;-64
2023/07/15 06:28:53;;;;;;;2.78;0.65;;;23.90;61.60;;;;;;5076696;28;20442;-64
2023/07/15 06:31:19;;;;;;;0.60;0.60;;;23.90;61.50;;;;;;5073050;28;20033;-64
2023/07/15 06:33:46;;;;;;;0.90;0.88;;;23.90;61.20;;;;;;5074617;28;20115;-60
2023/07/15 06:36:12;;;;;;;0.70;0.70;;;24.00;61.30;;;;;;5081330;28;20038;-59
2023/07/15 06:38:41;;;;;;;1.10;1.00;;;24.00;61.00;;;;;;5081651;28;20036;-60
2023/07/15 06:41:07;;;;;;;0.70;0.70;;;24.10;60.70;;;;;;5077437;28;20458;-60
2023/07/15 06:43:32;;;;;;;0.63;0.57;;;24.10;60.80;;;;;;5075022;28;20025;-60
2023/07/15 06:45:58;;;;;;;1.08;0.98;;;24.20;60.60;;;;;;5074279;28;20399;-59
2023/07/15 06:48:24;;;;;;;0.45;0.45;;;24.20;60.60;;;;;;5073853;28;20060;-59
2023/07/15 06:50:49;;;;;;;1.63;1.08;;;24.30;60.50;;;;;;5081889;28;20032;-64
2023/07/15 06:53:15;;;;;;;2.65;0.95;;;24.30;60.30;;;;;;5076909;28;20032;-64
2023/07/15 06:55:41;;;;;;;1.10;0.68;;;24.40;60.20;;;;;;5082536;28;20085;-64
2023/07/15 06:58:06;;;;;;;1.33;1.00;;;24.40;60.20;;;;;;5074772;28;20032;-64
2023/07/15 07:00:33;;;;;;;0.68;0.60;;;24.40;60.50;;;;;;5073247;28;20021;-59
2023/07/15 07:02:59;;;;;;;0.63;0.63;;;24.40;60.70;;;;;;5077022;28;20032;-59
2023/07/15 07:05:26;;;;;;;1.08;0.80;;;24.40;61.00;;;;;;5070931;28;21351;-63
2023/07/15 07:07:52;;;;;;;1.13;0.70;;;24.40;61.70;;;;;;5066063;28;20466;-63
2023/07/15 07:10:18;;;;;;;1.50;0.55;;;24.50;61.10;;;;;;5073785;28;20486;-59
2023/07/15 07:12:43;;;;;;;1.20;0.70;;;24.60;61.70;;;;;;5069029;28;20032;-59
2023/07/15 07:15:10;;;;;;;1.80;0.70;;;24.70;61.70;;;;;;5080232;28;20042;-59
2023/07/15 07:17:35;;;;;;;0.80;0.80;;;24.80;62.20;;;;;;5064471;28;20070;-59
2023/07/15 07:20:03;;;;;;;0.90;0.80;;;24.90;62.30;;;;;;5075802;28;20487;-59
2023/07/15 07:22:29;;;;;;;0.73;0.70;;;25.00;62.30;;;;;;5077800;28;20406;-59
2023/07/15 07:24:54;;;;;;;0.68;0.68;;;25.00;62.70;;;;;;5081153;28;20150;-59
2023/07/15 07:27:20;;;;;;;0.98;0.75;;;24.90;62.90;;;;;;5067009;28;20033;-59
2023/07/15 07:29:46;;;;;;;0.50;0.50;;;24.90;62.90;;;;;;5072850;28;20033;-58
2023/07/15 07:32:11;;;;;;;1.10;0.77;;;25.10;63.00;;;;;;5072160;28;20044;-59
2023/07/15 07:34:37;;;;;;;0.75;0.60;;;25.10;63.20;;;;;;5078375;28;20089;-59
2023/07/15 07:37:03;;;;;;;0.65;0.50;;;25.10;63.20;;;;;;5073719;28;20383;-59
2023/07/15 07:39:29;;;;;;;0.50;0.50;;;25.20;63.10;;;;;;5067978;28;20032;-59
2023/07/15 07:41:55;;;;;;;0.80;0.80;;;25.30;63.10;;;;;;5066498;28;20541;-59
2023/07/15 07:44:23;;;;;;;0.95;0.85;;;25.30;63.00;;;;;;5062107;28;20172;-59
2023/07/15 07:46:49;;;;;;;0.40;0.40;;;25.40;63.00;;;;;;5062090;28;20028;-59
2023/07/15 07:49:15;;;;;;;0.68;0.60;;;25.60;62.90;;;;;;5067219;28;20036;-63
2023/07/15 07:51:41;;;;;;;0.50;0.50;;;25.60;62.50;;;;;;5073504;28;20150;-64
2023/07/15 07:54:07;;;;;;;0.70;0.70;;;25.60;62.20;;;;;;5083392;28;20511;-59
2023/07/15 07:56:33;;;;;;;0.85;0.60;;;25.60;62.10;;;;;;5072870;28;20132;-59
2023/07/15 07:59:00;;;;;;;1.02;0.95;;;25.70;62.30;;;;;;5076111;28;20040;-59
2023/07/15 08:01:27;;;;;;;7.93;0.85;;;25.80;62.50;;;;;;5085668;28;20248;-59
2023/07/15 08:03:54;;;;;;;0.50;0.50;;;26.00;61.40;;;;;;5072489;28;20029;-59
2023/07/15 08:06:26;;;;;;;1.20;0.80;;;26.10;60.60;;;;;;5063844;28;20028;-59
2023/07/15 08:08:54;;;;;;;1.23;0.80;;;26.20;60.10;;;;;;5075815;28;20051;-59
2023/07/15 08:11:20;;;;;;;3.50;1.25;;;26.30;59.90;;;;;;5076965;28;20334;-59
2023/07/15 08:13:45;;;;;;;0.63;0.60;;;26.30;60.00;;;;;;5069712;28;20040;-59
2023/07/15 08:16:39;;;;;;;1.90;0.63;;;26.40;60.00;;;;;;5082028;28;20039;-59
2023/07/15 08:19:06;;;;;;;0.80;0.80;;;26.50;59.90;;;;;;5075741;28;20035;-62
2023/07/15 08:21:31;;;;;;;1.02;0.93;;;26.50;60.00;;;;;;5074902;28;20031;-59
2023/07/15 08:23:57;;;;;;;0.85;0.82;;;26.70;59.80;;;;;;5077319;28;20040;-59
2023/07/15 08:26:24;;;;;;;0.60;0.60;;;26.90;59.60;;;;;;5072686;28;20023;-64
2023/07/15 08:28:49;;;;;;;0.82;0.70;;;26.90;59.50;;;;;;5073946;28;20435;-59
2023/07/15 08:31:15;;;;;;;1.05;0.70;;;26.90;59.50;;;;;;5079748;28;20060;-60
2023/07/15 08:33:41;;;;;;;0.75;0.70;;;26.80;58.90;;;;;;5080266;28;20111;-59
2023/07/15 08:36:07;;;;;;;0.70;0.70;;;26.70;59.40;;;;;;5070106;28;20096;-59
2023/07/15 08:38:33;;;;;;;0.73;0.60;;;26.60;59.20;;;;;;5077370;28;20029;-59
2023/07/15 08:41:00;;;;;;;0.45;0.40;;;26.50;59.60;;;;;;5073948;28;20112;-60
2023/07/15 08:43:26;;;;;;;0.63;0.60;;;26.50;60.00;;;;;;5070615;28;20098;-63
2023/07/15 08:45:58;;;;;;;0.50;0.50;;;26.50;59.90;;;;;;5069208;28;20029;-63
2023/07/15 08:48:24;;;;;;;0.68;0.68;;;26.60;60.20;;;;;;5078290;28;20039;-60
2023/07/15 08:50:49;;;;;;;2.70;0.75;;;26.70;60.60;;;;;;5070867;28;20787;-63
2023/07/15 08:53:24;;;;;;;1.75;0.70;;;26.90;60.30;;;;;;5079122;28;20028;-59
2023/07/15 08:55:50;;;;;;;1.48;0.88;;;27.00;60.00;;;;;;5069781;28;20064;-60
2023/07/15 08:58:16;;;;;;;0.50;0.50;;;27.00;59.80;;;;;;5072889;28;20036;-63
2023/07/15 09:00:42;;;;;;;0.47;0.45;;;27.10;60.00;;;;;;5066141;28;20025;-60
2023/07/15 09:03:08;;;;;;;0.75;0.60;;;27.30;59.70;;;;;;5066369;28;20264;-64
2023/07/15 09:05:33;;;;;;;0.57;0.40;;;27.30;59.50;;;;;;5075688;28;20027;-64
2023/07/15 09:08:08;;;;;;;0.70;0.70;;;27.40;59.50;;;;;;5076382;28;20036;-64
2023/07/15 09:10:34;;;;;;;0.40;0.40;;;27.40;59.50;;;;;;5080110;28;20021;-59
2023/07/15 09:12:59;;;;;;;0.38;0.38;;;27.30;59.30;;;;;;5082164;28;20040;-59
2023/07/15 09:15:25;;;;;;;1.95;0.57;;;27.10;59.60;;;;;;5077408;28;20036;-63
2023/07/15 09:17:53;;;;;;;0.70;0.70;;;26.90;59.30;;;;;;5076300;28;20117;-63
2023/07/15 09:20:19;;;;;;;0.60;0.60;;;26.80;59.10;;;;;;5074912;28;20040;-63
2023/07/15 09:22:54;;;;;;;0.70;0.70;;;26.80;59.10;;;;;;5071622;28;20116;-63
2023/07/15 09:25:22;;;;;;;0.50;0.50;;;26.70;58.90;;;;;;5076227;28;20184;-63
2023/07/15 09:27:48;;;;;;;0.50;0.50;;;26.70;59.30;;;;;;5066990;28;20097;-63
2023/07/15 09:30:14;;;;;;;0.40;0.40;;;26.60;59.30;;;;;;5064707;28;20053;-59
2023/07/15 09:32:40;;;;;;;2.17;0.70;;;26.60;59.20;;;;;;5069851;28;20036;-58
2023/07/15 09:35:06;;;;;;;0.60;0.50;;;26.50;59.40;;;;;;5065824;28;20694;-62
2023/07/15 09:37:33;;;;;;;0.40;0.40;;;26.50;59.60;;;;;;5076042;28;20028;-60
2023/07/15 09:40:00;;;;;;;0.63;0.63;;;26.50;59.60;;;;;;5064914;28;20142;-58
2023/07/15 09:42:29;;;;;;;0.45;0.45;;;26.40;59.90;;;;;;5068362;28;20040;-63
2023/07/15 09:44:55;;;;;;;1.92;0.50;;;26.30;60.20;;;;;;5073771;28;20464;-63
2023/07/15 09:47:21;;;;;;;0.80;0.80;;;26.20;60.40;;;;;;5074521;28;20112;-58
2023/07/15 09:49:46;;;;;;;0.90;0.77;;;26.20;60.70;;;;;;5073962;28;20032;-60
2023/07/15 09:52:14;;;;;;;0.57;0.57;;;26.10;61.00;;;;;;5086433;28;20480;-63
2023/07/15 09:54:42;;;;;;;0.77;0.50;;;26.00;61.30;;;;;;5078140;28;20093;-58
2023/07/15 09:57:16;;;;;;;0.60;0.50;;;26.10;61.40;;;;;;5076230;28;20044;-58
2023/07/15 09:59:51;;;;;;;0.65;0.60;;;26.10;61.60;;;;;;5076112;28;20032;-58
2023/07/15 10:02:34;;;;;;;1.40;0.45;;;26.20;61.40;;;;;;5081410;28;20113;-59
2023/07/15 10:05:05;;;;;;;0.60;0.50;;;26.30;61.10;;;;;;5078906;28;20158;-58
2023/07/15 10:07:31;;;;;;;0.98;0.70;;;26.40;60.90;;;;;;5085201;28;20454;-58
2023/07/15 10:10:00;;;;;;;0.45;0.40;;;26.60;60.80;;;;;;5083164;28;20375;-62
2023/07/15 10:12:27;;;;;;;1.05;0.40;;;26.80;60.50;;;;;;5078265;28;20020;-58
2023/07/15 10:14:54;;;;;;;0.60;0.60;;;26.90;60.10;;;;;;5078311;28;20135;-62
2023/07/15 10:17:19;;;;;;;0.50;0.50;;;27.00;60.20;;;;;;5074695;28;20036;-59
2023/07/15 10:20:01;;;;;;;0.75;0.60;;;26.90;59.90;;;;;;5075455;28;20505;-64
2023/07/15 10:22:32;;;;;;;;;;;26.80;60.10;;;;;;5082604;28;20077;-63
2023/07/15 10:24:58;;;;;;;0.65;0.63;;;26.60;60.10;;;;;;5085708;28;19924;-63
2023/07/15 10:27:27;;;;;;;0.77;0.50;;;26.40;60.50;;;;;;5078558;28;20032;-63
2023/07/15 10:30:28;;;;;;;0.73;0.70;;;26.40;60.40;;;;;;5076167;28;20490;-62
2023/07/15 10:33:09;;;;;;;0.98;0.50;;;26.30;60.60;;;;;;5054657;28;20399;-59
2023/07/15 10:35:47;;;;;;;0.88;0.70;;;26.30;60.50;;;;;;5078480;28;20036;-58
2023/07/15 10:38:28;;;;;;;0.70;0.70;;;26.20;60.40;;;;;;5067942;28;20024;-58
2023/07/15 10:40:59;;;;;;;0.45;0.45;;;26.20;60.10;;;;;;5077435;28;20033;-59
2023/07/15 10:43:34;;;;;;;0.60;0.60;;;26.20;60.00;;;;;;5077887;28;20044;-62
2023/07/15 10:46:08;;;;;;;1.40;0.60;;;26.20;59.50;;;;;;5077740;28;20463;-62
2023/07/15 10:48:35;;;;;;;1.85;0.68;;;26.10;59.70;;;;;;5067625;28;20025;-62
2023/07/15 10:51:06;;;;;;;1.35;0.98;;;26.10;59.80;;;;;;5073498;28;20104;-58
2023/07/15 10:53:32;;;;;;;1.05;0.73;;;26.20;60.10;;;;;;5088456;28;20028;-63
2023/07/15 10:55:59;;;;;;;1.75;1.10;;;26.20;60.50;;;;;;5068870;28;20103;-64
2023/07/15 10:58:26;;;;;;;0.82;0.82;;;26.20;60.70;;;;;;5070829;28;20033;-58
2023/07/15 11:00:58;;;;;;;1.55;0.90;;;26.10;61.10;;;;;;5074020;28;20033;-60
2023/07/15 11:03:24;;;;;;;1.27;1.15;;;25.90;61.50;;;;;;5077697;28;20066;-59
2023/07/15 11:05:49;;;;;;;1.20;0.95;;;25.90;62.10;;;;;;5077335;28;20459;-60
2023/07/15 11:08:19;;;;;;;0.70;0.70;;;26.00;62.40;;;;;;5071382;28;20372;-60
2023/07/15 11:10:45;;;;;;;1.02;0.68;;;25.90;62.10;;;;;;5077026;28;20020;-64
2023/07/15 11:13:15;;;;;;;1.02;0.93;;;25.90;62.00;;;;;;5073833;28;20024;-64
2023/07/15 11:15:43;;;;;;;1.15;1.10;;;25.90;61.90;;;;;;5075072;28;20044;-66
2023/07/15 11:18:19;;;;;;;2.40;0.70;;;26.00;61.30;;;;;;5070004;28;20045;-65
2023/07/15 11:20:49;;;;;;;1.50;0.80;;;26.10;61.30;;;;;;5064162;28;20119;-65
2023/07/15 11:23:16;;;;;;;1.95;0.50;;;26.00;60.70;;;;;;5068961;28;20695;-65
2023/07/15 11:25:41;;;;;;;0.57;0.50;;;26.00;60.50;;;;;;5074484;28;20028;-59
2023/07/15 11:28:09;;;;;;;1.00;0.55;;;26.00;60.00;;;;;;5071329;28;20059;-59
2023/07/15 11:30:39;;;;;;;0.50;0.50;;;26.00;60.20;;;;;;5078453;28;20175;-59
2023/07/15 11:33:06;;;;;;;1.05;0.77;;;26.10;59.70;;;;;;5075639;28;20076;-65
2023/07/15 11:35:33;;;;;;;1.30;0.77;;;26.00;58.70;;;;;;5079291;28;20036;-65
2023/07/15 11:38:29;;;;;;;1.23;0.70;;;26.00;59.00;;;;;;5062847;28;20029;-62
2023/07/15 11:41:04;;;;;;;1.00;0.82;;;26.00;59.30;;;;;;5072953;28;20677;-60
2023/07/15 11:43:31;;;;;;;0.70;0.70;;;26.00;59.30;;;;;;5064487;28;20032;-63
2023/07/15 11:45:59;;;;;;;0.70;0.60;;;26.00;59.40;;;;;;5066082;28;21349;-62
2023/07/15 11:48:26;;;;;;;2.35;1.23;;;26.10;59.40;;;;;;5071946;28;20052;-62
2023/07/15 11:50:56;;;;;;;1.00;0.90;;;26.10;59.20;;;;;;5071408;28;20094;-62
2023/07/15 11:53:34;;;;;;;1.00;0.82;;;26.10;58.90;;;;;;5066436;28;20438;-62
2023/07/15 11:56:00;;;;;;;0.40;0.40;;;26.10;58.40;;;;;;5067984;28;20036;-62
2023/07/15 11:58:48;;;;;;;0.88;0.70;;;26.00;58.20;;;;;;5070948;28;20059;-62
2023/07/15 12:01:17;;;;;;;0.85;0.60;;;26.00;58.20;;;;;;5071154;28;20126;-62
2023/07/15 12:03:44;;;;;;;1.10;0.50;;;25.90;58.80;;;;;;5072276;28;20035;-62
2023/07/15 12:06:23;;;;;;;0.60;0.55;;;26.10;59.00;;;;;;5073008;28;20024;-62
2023/07/15 12:09:09;;;;;;;0.60;0.60;;;26.40;58.80;;;;;;5075333;28;20086;-62
2023/07/15 12:11:35;;;;;;;1.25;1.02;;;26.60;58.60;;;;;;5075576;28;20028;-62
2023/07/15 12:14:02;;;;;;;0.63;0.60;;;26.70;57.50;;;;;;5062396;28;20087;-62
2023/07/15 12:16:29;;;;;;;1.00;0.73;;;26.80;57.40;;;;;;5063522;28;20032;-62
2023/07/15 12:18:56;;;;;;;0.40;0.40;;;26.70;56.60;;;;;;5073144;28;20032;-62
2023/07/15 12:21:22;;;;;;;0.40;0.40;;;26.70;56.80;;;;;;5064377;28;20040;-62
2023/07/15 12:23:50;;;;;;;1.23;0.75;;;26.70;57.30;;;;;;5068129;28;20032;-62
2023/07/15 12:26:17;;;;;;;0.57;0.57;;;26.80;57.20;;;;;;5062961;28;20040;-59
2023/07/15 12:28:43;;;;;;;1.33;1.23;;;26.90;57.00;;;;;;5060677;28;20044;-58
2023/07/15 12:31:09;;;;;;;1.40;0.50;;;26.90;56.70;;;;;;5078045;28;20555;-59
2023/07/15 12:33:35;;;;;;;0.85;0.70;;;27.00;56.70;;;;;;5074080;28;20529;-59
2023/07/15 12:36:02;;;;;;;0.50;0.50;;;27.10;56.80;;;;;;5059530;28;20043;-59
2023/07/15 12:38:28;;;;;;;0.85;0.75;;;27.30;56.70;;;;;;5072750;28;20036;-59
2023/07/15 12:40:54;;;;;;;0.50;0.50;;;27.70;56.30;;;;;;5068422;28;20028;-58
2023/07/15 12:43:20;;;;;;;0.70;0.70;;;27.90;55.30;;;;;;5067846;28;20025;-59
2023/07/15 12:45:47;;;;;;;2.13;0.52;;;27.80;54.10;;;;;;5059813;28;20047;-59
2023/07/15 12:48:13;;;;;;;0.40;0.40;;;27.70;53.80;;;;;;5067494;28;20471;-63
2023/07/15 12:50:38;;;;;;;2.40;0.75;;;27.70;54.30;;;;;;5064202;28;20020;-63